Time;durP1;ratioP1;P1;durP2;ratioP2;P2;SDS_P1;SDS_P2;PMS_P1;PMS_P2;Temp;Humidity;BMP_temperature;BMP_pressure;BME280_temperature;BME280_humidity;BME280_pressure;Samples;Min_cycle;Max_cycle;Signal;HPM_P1;HPM_P2
2023/10/21 00:00:56;;;;;;;21.77;7.60;;;;;;;9.57;100.00;98243.91;5049539;28;20028;-66
2023/10/21 00:03:21;;;;;;;20.83;6.97;;;;;;;9.55;100.00;98246.25;5049707;28;20520;-65
2023/10/21 00:05:47;;;;;;;19.85;7.00;;;;;;;9.53;100.00;98251.31;5049612;28;20177;-66
2023/10/21 00:08:12;;;;;;;20.95;7.15;;;;;;;9.51;100.00;98243.41;5049535;28;20138;-65
2023/10/21 00:10:37;;;;;;;20.42;6.47;;;;;;;9.47;100.00;98253.56;5049389;28;20074;-65
2023/10/21 00:13:03;;;;;;;19.63;6.78;;;;;;;9.45;100.00;98252.34;5049617;28;20116;-66
2023/10/21 00:15:28;;;;;;;19.58;6.50;;;;;;;9.46;100.00;98243.69;5049593;28;20033;-65
2023/10/21 00:17:53;;;;;;;19.80;6.80;;;;;;;9.46;100.00;98257.47;5049193;28;20021;-65
2023/10/21 00:20:19;;;;;;;20.50;7.28;;;;;;;9.45;100.00;98244.06;5049106;28;20031;-66
2023/10/21 00:22:44;;;;;;;22.13;6.82;;;;;;;9.43;100.00;98249.94;5049628;28;20130;-66
2023/10/21 00:25:09;;;;;;;20.08;7.10;;;;;;;9.47;100.00;98270.13;5047943;28;20078;-66
2023/10/21 00:27:34;;;;;;;18.25;6.45;;;;;;;9.43;100.00;98262.94;5049757;28;20025;-66
2023/10/21 00:30:00;;;;;;;20.90;7.25;;;;;;;9.44;100.00;98272.81;5049521;28;20028;-66
2023/10/21 00:32:25;;;;;;;22.13;7.88;;;;;;;9.44;100.00;98278.31;5049643;28;20063;-66
2023/10/21 00:34:50;;;;;;;21.08;7.10;;;;;;;9.44;100.00;98278.31;5049707;28;20168;-66
2023/10/21 00:37:16;;;;;;;20.83;7.45;;;;;;;9.51;100.00;98290.31;5049669;28;20039;-66
2023/10/21 00:39:42;;;;;;;24.63;7.65;;;;;;;9.53;100.00;98295.47;5049468;28;20025;-66
2023/10/21 00:42:08;;;;;;;22.25;7.90;;;;;;;9.55;100.00;98306.13;5049337;28;20041;-66
2023/10/21 00:44:33;;;;;;;25.80;10.05;;;;;;;9.57;100.00;98309.34;5049444;28;20056;-67
2023/10/21 00:46:59;;;;;;;23.92;8.50;;;;;;;9.58;100.00;98308.19;5049479;28;20151;-66
2023/10/21 00:49:26;;;;;;;22.13;7.88;;;;;;;9.60;100.00;98311.38;5049317;28;20119;-66
2023/10/21 00:51:52;;;;;;;21.92;9.13;;;;;;;9.61;100.00;98301.94;5047784;28;20098;-66
2023/10/21 00:54:17;;;;;;;22.60;9.10;;;;;;;9.62;100.00;98315.38;5047814;28;20485;-67
2023/10/21 00:56:43;;;;;;;22.17;8.23;;;;;;;9.68;100.00;98318.66;5049125;28;20818;-66
2023/10/21 00:59:11;;;;;;;23.67;9.15;;;;;;;9.68;100.00;98324.97;5049074;28;20051;-66
2023/10/21 01:01:37;;;;;;;22.15;7.93;;;;;;;9.70;100.00;98335.66;5049361;28;20060;-66
2023/10/21 01:04:03;;;;;;;20.95;8.23;;;;;;;9.70;100.00;98334.84;5049130;28;20114;-66
2023/10/21 01:06:29;;;;;;;20.67;8.57;;;;;;;9.71;100.00;98333.69;5049303;28;20040;-66
2023/10/21 01:08:54;;;;;;;23.05;8.75;;;;;;;9.70;100.00;98343.94;5049297;28;20028;-65
2023/10/21 01:11:19;;;;;;;22.35;8.38;;;;;;;9.68;100.00;98333.25;5049099;28;20066;-65
2023/10/21 01:13:45;;;;;;;23.60;9.20;;;;;;;9.67;100.00;98336.38;5049444;28;20063;-65
2023/10/21 01:16:11;;;;;;;22.67;9.30;;;;;;;9.68;100.00;98335.22;5049361;28;20029;-65
2023/10/21 01:18:38;;;;;;;24.13;10.75;;;;;;;9.68;100.00;98340.75;5049097;28;20031;-66
2023/10/21 01:21:03;;;;;;;24.83;10.48;;;;;;;9.67;100.00;98342.72;5049266;28;20021;-65
2023/10/21 01:23:30;;;;;;;25.40;11.55;;;;;;;9.68;100.00;98343.50;5049544;28;20028;-65
2023/10/21 01:25:55;;;;;;;25.33;11.52;;;;;;;9.70;100.00;98348.66;5049425;28;20801;-65
2023/10/21 01:28:20;;;;;;;29.55;11.88;;;;;;;9.70;100.00;98356.94;5049150;28;20033;-65
2023/10/21 01:30:46;;;;;;;26.23;12.02;;;;;;;9.71;100.00;98350.25;5051004;28;20025;-65
2023/10/21 01:33:11;;;;;;;26.10;11.43;;;;;;;9.72;100.00;98351.88;5052566;28;20060;-65
2023/10/21 01:35:37;;;;;;;24.92;10.93;;;;;;;9.74;100.00;98360.59;5052556;28;20374;-65
2023/10/21 01:38:03;;;;;;;26.55;11.23;;;;;;;9.76;100.00;98361.81;5052518;28;20433;-65
2023/10/21 01:40:28;;;;;;;23.05;10.13;;;;;;;9.78;100.00;98362.25;5052394;28;20033;-65
2023/10/21 01:42:53;;;;;;;24.02;10.23;;;;;;;9.81;100.00;98361.56;5052511;28;20111;-66
2023/10/21 01:45:19;;;;;;;24.75;10.30;;;;;;;9.83;100.00;98370.25;5052288;28;20086;-65
2023/10/21 01:47:44;;;;;;;25.40;10.15;;;;;;;9.83;100.00;98364.72;5052456;28;20056;-65
2023/10/21 01:50:09;;;;;;;23.50;9.63;;;;;;;9.87;100.00;98364.00;5052243;28;20039;-65
2023/10/21 01:52:36;;;;;;;23.73;8.77;;;;;;;9.84;100.00;98369.09;5052462;28;20027;-66
2023/10/21 01:55:05;;;;;;;23.83;8.80;;;;;;;9.91;100.00;98375.94;5052373;28;20111;-66
2023/10/21 01:57:32;;;;;;;21.02;8.45;;;;;;;9.93;100.00;98370.84;5052109;28;20126;-66
2023/10/21 02:00:04;;;;;;;24.25;8.27;;;;;;;9.93;100.00;98376.38;5052167;28;20077;-66
2023/10/21 02:02:29;;;;;;;21.77;8.10;;;;;;;9.96;100.00;98375.66;5052492;28;20097;-66
2023/10/21 02:04:55;;;;;;;22.10;7.45;;;;;;;9.97;100.00;98380.78;5052020;28;20021;-66
2023/10/21 02:07:20;;;;;;;22.95;7.55;;;;;;;9.96;100.00;98370.94;5051970;28;20498;-66
2023/10/21 02:09:46;;;;;;;20.45;7.53;;;;;;;10.03;100.00;98386.84;5051694;28;20017;-66
2023/10/21 02:12:11;;;;;;;23.42;8.25;;;;;;;10.04;100.00;98391.19;5051909;28;20467;-66
2023/10/21 02:14:36;;;;;;;23.23;7.45;;;;;;;10.06;100.00;98393.63;5051899;28;20029;-66
2023/10/21 02:17:02;;;;;;;20.80;8.02;;;;;;;10.07;100.00;98386.91;5051812;28;20032;-66
2023/10/21 02:19:27;;;;;;;21.20;7.75;;;;;;;10.09;100.00;98390.13;5051695;28;20051;-66
2023/10/21 02:21:52;;;;;;;21.42;7.80;;;;;;;10.11;100.00;98407.13;5051575;28;20029;-65
2023/10/21 02:24:18;;;;;;;22.30;8.05;;;;;;;10.10;100.00;98397.25;5051559;28;20345;-65
2023/10/21 02:26:43;;;;;;;20.33;7.95;;;;;;;10.12;100.00;98404.00;5051506;28;20025;-65
2023/10/21 02:29:08;;;;;;;22.10;7.72;;;;;;;10.14;100.00;98409.97;5051382;28;20025;-65
2023/10/21 02:31:34;;;;;;;26.15;11.32;;;;;;;10.17;100.00;98408.44;5051175;28;20037;-65
2023/10/21 02:33:59;;;;;;;24.13;10.40;;;;;;;10.17;100.00;98404.88;5051349;28;20368;-65
2023/10/21 02:36:25;;;;;;;21.42;7.88;;;;;;;10.17;100.00;98413.16;5051248;28;20090;-65
2023/10/21 02:38:53;;;;;;;21.52;7.72;;;;;;;10.18;100.00;98417.53;5051394;28;20024;-65
2023/10/21 02:41:19;;;;;;;21.90;7.22;;;;;;;10.15;100.00;98417.09;5050395;28;20025;-65
2023/10/21 02:43:44;;;;;;;22.40;7.53;;;;;;;10.20;100.00;98426.28;5049552;28;20079;-65
2023/10/21 02:46:10;;;;;;;20.67;7.65;;;;;;;10.19;100.00;98435.72;5051155;28;20052;-66
2023/10/21 02:48:37;;;;;;;21.25;7.40;;;;;;;10.17;100.00;98435.28;5050953;28;20043;-66
2023/10/21 02:51:13;;;;;;;21.20;7.35;;;;;;;10.16;100.00;98434.47;5051340;28;20021;-66
2023/10/21 02:53:39;;;;;;;21.30;7.50;;;;;;;10.18;100.00;98436.88;5051389;28;20040;-66
2023/10/21 02:56:08;;;;;;;20.33;7.50;;;;;;;10.20;100.00;98445.59;5051535;28;20138;-66
2023/10/21 02:58:34;;;;;;;22.90;7.28;;;;;;;10.19;100.00;98447.56;5051299;28;20430;-66
2023/10/21 03:01:19;;;;;;;21.02;7.20;;;;;;;10.16;100.00;98442.75;5051339;28;20035;-66
2023/10/21 03:03:47;;;;;;;22.70;7.72;;;;;;;10.15;100.00;98444.72;5051268;28;20029;-65
2023/10/21 03:06:16;;;;;;;21.98;7.25;;;;;;;10.15;100.00;98453.00;5051396;28;20123;-66
2023/10/21 03:08:42;;;;;;;20.98;7.07;;;;;;;10.17;100.00;98457.38;5050925;28;20025;-65
2023/10/21 03:11:08;;;;;;;20.65;7.38;;;;;;;10.15;100.00;98450.25;5050724;28;20445;-65
2023/10/21 03:13:36;;;;;;;20.17;7.40;;;;;;;10.07;100.00;98444.91;5049133;28;20380;-65
2023/10/21 03:16:09;;;;;;;20.02;6.90;;;;;;;10.17;100.00;98462.91;5050706;28;20036;-65
2023/10/21 03:18:35;;;;;;;21.20;8.03;;;;;;;10.19;100.00;98463.34;5050789;28;20039;-66
2023/10/21 03:21:01;;;;;;;18.77;6.47;;;;;;;10.18;100.00;98470.03;5050949;28;20283;-66
2023/10/21 03:23:26;;;;;;;20.20;7.57;;;;;;;10.15;100.00;98469.59;5050551;28;20414;-64
2023/10/21 03:25:59;;;;;;;19.65;7.10;;;;;;;10.15;100.00;98469.59;5050436;28;20098;-65
2023/10/21 03:28:26;;;;;;;24.38;8.65;;;;;;;10.15;100.00;98469.59;5050499;28;20040;-65
2023/10/21 03:30:54;;;;;;;21.13;7.35;;;;;;;10.15;100.00;98466.81;5050474;28;20067;-65
2023/10/21 03:33:20;;;;;;;20.10;7.13;;;;;;;10.15;100.00;98477.88;5050588;28;20068;-65
2023/10/21 03:35:52;;;;;;;20.13;6.63;;;;;;;10.14;100.00;98481.78;5050617;28;20096;-64
2023/10/21 03:38:18;;;;;;;19.65;6.70;;;;;;;10.15;100.00;98482.63;5050636;28;20037;-65
2023/10/21 03:40:43;;;;;;;20.45;6.72;;;;;;;10.15;100.00;98486.16;5050132;28;20139;-66
2023/10/21 03:43:09;;;;;;;19.83;6.65;;;;;;;10.18;100.00;98497.66;5050126;28;20025;-66
2023/10/21 03:45:37;;;;;;;21.60;6.47;;;;;;;10.19;100.00;98502.81;5050092;28;20024;-66
2023/10/21 03:48:03;;;;;;;19.15;6.60;;;;;;;10.18;100.00;98503.19;5050030;28;20029;-65
2023/10/21 03:50:28;;;;;;;21.00;7.32;;;;;;;10.19;100.00;98502.81;5049953;28;20045;-66
2023/10/21 03:52:54;;;;;;;20.23;7.15;;;;;;;10.22;100.00;98515.09;5049564;28;20131;-65
2023/10/21 03:55:19;;;;;;;21.13;6.57;;;;;;;10.17;100.00;98521.72;5048184;28;20020;-66
2023/10/21 03:57:45;;;;;;;19.67;6.75;;;;;;;10.18;100.00;98520.56;5050021;28;20052;-66
2023/10/21 04:00:12;;;;;;;19.65;6.70;;;;;;;10.17;100.00;98521.72;5048132;28;20082;-66
2023/10/21 04:02:37;;;;;;;21.27;6.63;;;;;;;10.17;100.00;98524.47;5049899;28;20040;-66
2023/10/21 04:05:06;;;;;;;19.80;6.43;;;;;;;10.21;100.00;98532.84;5048253;28;20025;-66
2023/10/21 04:07:32;;;;;;;22.25;6.93;;;;;;;10.19;100.00;98529.66;5049855;28;20052;-66
2023/10/21 04:09:57;;;;;;;19.00;6.38;;;;;;;10.20;100.00;98539.56;5049789;28;20388;-65
2023/10/21 04:12:22;;;;;;;21.42;6.70;;;;;;;10.16;100.00;98544.97;5049840;28;20029;-66
2023/10/21 04:14:47;;;;;;;18.77;6.35;;;;;;;10.21;100.00;98549.41;5049825;28;20025;-66
2023/10/21 04:17:13;;;;;;;20.83;6.80;;;;;;;10.19;100.00;98543.47;5049896;28;20025;-66
2023/10/21 04:19:39;;;;;;;22.00;5.82;;;;;;;10.19;100.00;98552.56;5049863;28;20051;-66
2023/10/21 04:22:05;;;;;;;23.00;7.40;;;;;;;10.19;100.00;98549.00;5049845;28;20028;-67
2023/10/21 04:24:30;;;;;;;18.88;6.82;;;;;;;10.17;100.00;98557.63;5050125;28;20033;-66
2023/10/21 04:26:55;;;;;;;20.38;6.45;;;;;;;10.21;100.00;98557.72;5050026;28;20036;-66
2023/10/21 04:29:20;;;;;;;21.85;7.85;;;;;;;10.26;100.00;98560.22;5049848;28;20020;-66
2023/10/21 04:31:46;;;;;;;22.73;7.38;;;;;;;10.28;100.00;98568.94;5049530;28;20039;-66
2023/10/21 04:34:12;;;;;;;19.38;6.97;;;;;;;10.26;100.00;98568.50;5049599;28;20029;-66
2023/10/21 04:36:38;;;;;;;19.77;7.43;;;;;;;10.33;100.00;98571.41;5049609;28;20123;-66
2023/10/21 04:39:03;;;;;;;20.60;6.75;;;;;;;10.36;100.00;98583.72;5049452;28;20220;-66
2023/10/21 04:41:29;;;;;;;21.48;6.90;;;;;;;10.37;100.00;98582.53;5049503;28;20108;-66
2023/10/21 04:43:55;;;;;;;20.55;6.90;;;;;;;10.37;100.00;98586.16;5049566;28;20192;-67
2023/10/21 04:46:20;;;;;;;21.17;6.72;;;;;;;10.37;100.00;98594.44;5049391;28;20029;-67
2023/10/21 04:48:45;;;;;;;21.08;6.50;;;;;;;10.36;100.00;98590.06;5049427;28;20404;-66
2023/10/21 04:51:11;;;;;;;19.67;6.68;;;;;;;10.36;100.00;98592.81;5049331;28;20047;-65
2023/10/21 04:53:37;;;;;;;22.75;7.50;;;;;;;10.36;100.00;98592.81;5049273;28;20181;-66
2023/10/21 04:56:03;;;;;;;19.92;7.80;;;;;;;10.35;100.00;98606.97;5049096;28;20025;-66
2023/10/21 04:58:28;;;;;;;20.67;6.80;;;;;;;10.33;100.00;98607.34;5049211;28;20130;-66
2023/10/21 05:00:53;;;;;;;20.02;6.28;;;;;;;10.28;100.00;98605.66;5049472;28;20064;-66
2023/10/21 05:03:19;;;;;;;19.85;6.35;;;;;;;10.29;100.00;98609.25;5049545;28;20108;-66
2023/10/21 05:05:45;;;;;;;20.48;6.30;;;;;;;10.26;100.00;98607.97;5051806;28;20021;-66
2023/10/21 05:08:10;;;;;;;21.65;6.95;;;;;;;10.27;100.00;98608.78;5053330;28;20053;-66
2023/10/21 05:10:36;;;;;;;20.25;6.25;;;;;;;10.26;100.00;98612.72;5053180;28;20087;-66
2023/10/21 05:13:01;;;;;;;21.80;6.82;;;;;;;10.25;100.00;98627.69;5053099;28;20037;-66
2023/10/21 05:15:26;;;;;;;22.75;6.80;;;;;;;10.23;100.00;98633.56;5052932;28;20522;-66
2023/10/21 05:17:52;;;;;;;21.10;8.07;;;;;;;10.20;100.00;98628.75;5052722;28;20382;-66
2023/10/21 05:20:17;;;;;;;21.73;6.85;;;;;;;10.19;100.00;98632.69;5052643;28;20029;-65
2023/10/21 05:22:42;;;;;;;19.50;6.60;;;;;;;10.15;100.00;98651.94;5052862;28;20067;-65
2023/10/21 05:25:09;;;;;;;20.67;6.07;;;;;;;10.13;100.00;98650.69;5052826;28;20036;-65
2023/10/21 05:27:35;;;;;;;18.95;5.88;;;;;;;10.10;100.00;98660.50;5052933;28;20083;-66
2023/10/21 05:30:00;;;;;;;20.58;7.15;;;;;;;10.08;100.00;98659.22;5052415;28;20033;-66
2023/10/21 05:32:26;;;;;;;20.10;7.03;;;;;;;10.07;100.00;98658.44;5052445;28;20441;-66
2023/10/21 05:34:51;;;;;;;20.60;6.78;;;;;;;10.03;100.00;98660.31;5052562;28;20048;-66
2023/10/21 05:37:16;;;;;;;23.48;6.75;;;;;;;9.96;100.00;98660.13;5052445;28;20053;-66
2023/10/21 05:39:42;;;;;;;19.70;6.63;;;;;;;9.96;100.00;98669.25;5052482;28;20021;-66
2023/10/21 05:42:09;;;;;;;18.50;5.57;;;;;;;9.92;100.00;98673.84;5052675;28;20438;-66
2023/10/21 05:44:34;;;;;;;21.45;6.40;;;;;;;9.91;100.00;98679.75;5052563;28;20025;-66
2023/10/21 05:47:00;;;;;;;20.85;6.07;;;;;;;9.99;100.00;98678.75;5052436;28;20170;-66
2023/10/21 05:49:25;;;;;;;21.60;6.25;;;;;;;9.96;100.00;98685.81;5052290;28;20098;-66
2023/10/21 05:51:50;;;;;;;21.05;6.40;;;;;;;9.96;100.00;98693.28;5052170;28;20209;-66
2023/10/21 05:54:16;;;;;;;19.90;6.70;;;;;;;9.94;100.00;98695.59;5052177;28;20021;-66
2023/10/21 05:56:41;;;;;;;21.60;6.32;;;;;;;10.01;100.00;98701.31;5052124;28;20052;-66
2023/10/21 05:59:06;;;;;;;20.95;6.35;;;;;;;10.07;100.00;98708.19;5051931;28;20511;-66
2023/10/21 06:01:31;;;;;;;20.92;6.18;;;;;;;10.15;100.00;98711.94;5052250;28;20425;-66
2023/10/21 06:03:57;;;;;;;21.05;6.05;;;;;;;10.20;100.00;98710.88;5051982;28;20123;-66
2023/10/21 06:06:22;;;;;;;19.83;6.18;;;;;;;10.23;100.00;98721.19;5051908;28;20342;-66
2023/10/21 06:08:48;;;;;;;21.27;5.97;;;;;;;10.28;100.00;98718.97;5051862;28;20041;-66
2023/10/21 06:11:13;;;;;;;27.88;13.50;;;;;;;10.35;100.00;98721.09;5051795;28;20078;-66
2023/10/21 06:13:39;;;;;;;21.70;6.72;;;;;;;10.39;100.00;98724.00;5051871;28;20025;-66
2023/10/21 06:16:05;;;;;;;21.27;6.70;;;;;;;10.42;100.00;98726.84;5051302;28;20418;-65
2023/10/21 06:18:30;;;;;;;21.00;6.60;;;;;;;10.47;100.00;98734.06;5050926;28;20036;-66
2023/10/21 06:20:55;;;;;;;19.50;6.20;;;;;;;10.50;100.00;98735.31;5051455;28;20531;-66
2023/10/21 06:23:21;;;;;;;21.63;5.90;;;;;;;10.53;100.00;98738.16;5051319;28;20017;-66
2023/10/21 06:25:47;;;;;;;19.75;6.35;;;;;;;10.56;100.00;98739.41;5051540;28;20032;-66
2023/10/21 06:28:15;;;;;;;22.60;6.70;;;;;;;10.58;100.00;98743.41;5051942;28;20032;-66
2023/10/21 06:30:41;;;;;;;20.65;6.15;;;;;;;10.63;100.00;98750.66;5052107;28;20056;-66
2023/10/21 06:33:09;;;;;;;20.75;6.00;;;;;;;10.70;100.00;98753.56;5051670;28;20057;-66
2023/10/21 06:35:34;;;;;;;20.05;6.63;;;;;;;10.72;100.00;98750.47;5052232;28;20025;-66
2023/10/21 06:38:00;;;;;;;19.92;6.15;;;;;;;10.84;100.00;98766.16;5052250;28;20082;-66
2023/10/21 06:40:25;;;;;;;20.52;6.28;;;;;;;10.83;100.00;98765.34;5050163;28;20108;-66
2023/10/21 06:42:50;;;;;;;20.95;5.55;;;;;;;10.90;100.00;98765.53;5051660;28;20074;-66
2023/10/21 06:45:15;;;;;;;20.85;5.95;;;;;;;10.90;100.00;98775.78;5051476;28;20032;-66
2023/10/21 06:47:41;;;;;;;21.02;6.28;;;;;;;11.00;100.00;98785.50;5051342;28;20028;-66
2023/10/21 06:50:07;;;;;;;19.83;6.07;;;;;;;11.03;100.00;98788.34;5051229;28;20033;-66
2023/10/21 06:52:32;;;;;;;21.40;6.05;;;;;;;11.06;100.00;98789.59;5049677;28;20029;-66
2023/10/21 06:54:58;;;;;;;19.35;6.28;;;;;;;11.14;100.00;98796.88;5051210;28;20064;-66
2023/10/21 06:57:23;;;;;;;20.70;6.15;;;;;;;11.19;100.00;98795.81;5050698;28;20496;-65
2023/10/21 06:59:50;;;;;;;20.00;5.78;;;;;;;11.24;100.00;98809.38;5051125;28;20082;-65
2023/10/21 07:02:17;;;;;;;24.02;6.32;;;;;;;11.29;100.00;98809.09;5050916;28;20155;-65
2023/10/21 07:04:43;;;;;;;22.15;6.80;;;;;;;11.35;100.00;98817.91;5051130;28;20059;-66
2023/10/21 07:07:10;;;;;;;20.77;7.20;;;;;;;11.38;100.00;98809.69;5050905;28;20024;-66
2023/10/21 07:09:37;;;;;;;20.63;6.10;;;;;;;11.41;100.00;98829.50;5050839;28;20051;-66
2023/10/21 07:12:03;;;;;;;21.35;5.80;;;;;;;11.42;100.00;98826.38;5051034;28;20040;-66
2023/10/21 07:14:29;;;;;;;16.80;4.95;;;;;;;11.48;100.00;98844.28;5050803;28;20195;-65
2023/10/21 07:16:55;;;;;;;16.70;4.80;;;;;;;11.49;100.00;98848.69;5049171;28;20489;-66
2023/10/21 07:19:20;;;;;;;14.70;4.28;;;;;;;11.54;100.00;98845.63;5050767;28;20079;-66
2023/10/21 07:21:45;;;;;;;16.33;4.03;;;;;;;11.57;100.00;98846.88;5050569;28;20563;-66
2023/10/21 07:24:12;;;;;;;16.50;4.88;;;;;;;11.59;100.00;98852.03;5050823;28;20025;-66
2023/10/21 07:26:37;;;;;;;14.18;3.67;;;;;;;11.57;100.00;98857.94;5049347;28;20032;-66
2023/10/21 07:29:03;;;;;;;16.33;3.90;;;;;;;11.65;100.00;98872.78;5050674;28;20036;-66
2023/10/21 07:31:28;;;;;;;16.85;3.97;;;;;;;11.65;100.00;98887.41;5050817;28;20044;-66
2023/10/21 07:33:53;;;;;;;12.30;3.60;;;;;;;11.65;100.00;98890.19;5050803;28;20048;-66
2023/10/21 07:36:19;;;;;;;12.10;3.70;;;;;;;11.67;100.00;98906.44;5050919;28;20376;-66
2023/10/21 07:38:44;;;;;;;12.32;3.72;;;;;;;11.63;100.00;98903.56;5050654;28;20028;-66
2023/10/21 07:41:11;;;;;;;14.60;3.25;;;;;;;11.64;100.00;98921.00;5050658;28;20079;-65
2023/10/21 07:43:36;;;;;;;7.03;2.50;;;;;;;11.58;100.00;98931.56;5050631;28;20044;-66
2023/10/21 07:46:03;;;;;;;7.15;2.22;;;;;;;11.58;100.00;98937.09;5050552;28;20477;-66
2023/10/21 07:48:28;;;;;;;4.32;2.08;;;;;;;11.57;100.00;98949.34;5050888;28;20532;-66
2023/10/21 07:50:54;;;;;;;5.65;2.00;;;;;;;11.60;100.00;98956.94;5050333;28;20039;-66
2023/10/21 07:53:20;;;;;;;3.80;1.70;;;;;;;11.60;100.00;98965.25;5050678;28;20120;-66
2023/10/21 07:55:47;;;;;;;6.78;1.73;;;;;;;11.63;100.00;98969.25;5048823;28;20107;-66
2023/10/21 07:58:12;;;;;;;5.53;1.95;;;;;;;11.67;100.00;98975.66;5050211;28;20052;-66
2023/10/21 08:00:39;;;;;;;5.75;2.00;;;;;;;11.71;100.00;98980.13;5050412;28;20048;-66
2023/10/21 08:03:05;;;;;;;6.82;2.03;;;;;;;11.77;100.00;98986.19;5050316;28;20029;-66
2023/10/21 08:05:30;;;;;;;4.68;1.60;;;;;;;11.82;100.00;98985.94;5050294;28;20507;-66
2023/10/21 08:07:55;;;;;;;4.22;1.63;;;;;;;11.84;100.00;98997.47;5050402;28;20429;-66
2023/10/21 08:10:22;;;;;;;7.63;1.73;;;;;;;11.90;100.00;99003.53;5050251;28;20025;-66
2023/10/21 08:12:47;;;;;;;7.35;1.77;;;;;;;11.94;100.00;99014.72;5050134;28;20354;-66
2023/10/21 08:15:12;;;;;;;3.13;1.42;;;;;;;12.02;100.00;99016.50;5049972;28;20062;-66
2023/10/21 08:17:38;;;;;;;5.35;1.77;;;;;;;12.05;100.00;99014.97;5049885;28;20025;-66
2023/10/21 08:20:04;;;;;;;6.00;1.63;;;;;;;12.12;100.00;99021.50;5049794;28;20025;-66
2023/10/21 08:22:30;;;;;;;5.45;1.65;;;;;;;12.17;100.00;99026.75;5049747;28;20064;-65
2023/10/21 08:24:56;;;;;;;7.53;1.80;;;;;;;12.22;100.00;99019.31;5050054;28;20028;-65
2023/10/21 08:27:21;;;;;;;3.38;1.30;;;;;;;12.28;100.00;99031.72;5049839;28;20497;-65
2023/10/21 08:29:48;;;;;;;4.88;1.30;;;;;;;12.27;100.00;99030.94;5049859;28;20441;-66
2023/10/21 08:32:13;;;;;;;3.80;1.38;;;;;;;12.27;100.00;99041.22;5049931;28;20025;-66
2023/10/21 08:34:38;;;;;;;4.40;1.50;;;;;;;12.26;100.00;99034.88;5049925;28;20032;-67
2023/10/21 08:37:04;;;;;;;5.70;1.63;;;;;;;12.25;100.00;99038.00;5050251;28;20025;-66
2023/10/21 08:39:30;;;;;;;5.05;1.60;;;;;;;12.24;100.00;99039.97;5050383;28;20068;-65
2023/10/21 08:41:56;;;;;;;7.57;1.70;;;;;;;12.24;100.00;99034.41;5053909;28;20072;-66
2023/10/21 08:44:22;;;;;;;3.78;1.48;;;;;;;12.29;100.00;99048.00;5054278;28;20036;-66
2023/10/21 08:46:49;;;;;;;6.13;1.45;;;;;;;12.30;100.00;99046.81;5053842;28;20044;-66
2023/10/21 08:49:17;;;;;;;6.00;1.80;;;;;;;12.37;100.00;99034.31;5053742;28;20028;-65
2023/10/21 08:51:45;;;;;;;3.67;1.20;;;;;;;12.41;100.00;99041.53;5053528;28;20093;-66
2023/10/21 08:54:12;;;;;;;5.82;1.40;;;;;;;12.48;100.00;99055.56;5052030;28;20477;-65
2023/10/21 08:56:37;;;;;;;2.58;1.08;;;;;;;12.56;100.00;99050.97;5053785;28;20044;-65
2023/10/21 08:59:03;;;;;;;6.82;1.40;;;;;;;12.61;100.00;99066.53;5053881;28;20053;-66
2023/10/21 09:01:29;;;;;;;5.78;1.15;;;;;;;12.67;100.00;99075.34;5053690;28;20040;-66
2023/10/21 09:03:55;;;;;;;4.72;1.50;;;;;;;12.76;100.00;99081.47;5053693;28;20025;-65
2023/10/21 09:06:21;;;;;;;5.35;1.27;;;;;;;12.79;100.00;99070.47;5053720;28;20055;-66
2023/10/21 09:08:47;;;;;;;7.20;1.48;;;;;;;12.82;100.00;99077.25;5053642;28;20373;-66
2023/10/21 09:11:16;;;;;;;6.97;1.40;;;;;;;12.84;100.00;99079.66;5053544;28;20040;-66
2023/10/21 09:13:42;;;;;;;4.40;1.10;;;;;;;12.85;100.00;99095.94;5053552;28;20027;-65
2023/10/21 09:16:26;;;;;;;3.17;1.00;;;;;;;12.87;100.00;99092.81;5053591;28;20431;-66
2023/10/21 09:19:00;;;;;;;5.18;1.10;;;;;;;12.86;100.00;99080.09;5053373;28;20486;-66
2023/10/21 09:21:42;;;;;;;6.32;1.35;;;;;;;12.85;100.00;99089.59;5053507;28;20637;-66
2023/10/21 09:24:12;;;;;;;5.03;1.30;;;;;;;12.89;100.00;99096.03;5053437;28;20021;-65
2023/10/21 09:26:42;;;;;;;7.60;1.42;;;;;;;12.93;100.00;99096.91;5053305;28;20116;-65
2023/10/21 09:29:11;;;;;;;6.32;1.50;;;;;;;12.93;100.00;99100.50;5053353;28;20033;-66
2023/10/21 09:31:53;;;;;;;6.07;1.50;;;;;;;12.95;100.00;99105.66;5053413;28;20037;-66
2023/10/21 09:34:24;;;;;;;6.60;1.58;;;;;;;12.96;100.00;99110.06;5053366;28;20056;-66
2023/10/21 09:36:51;;;;;;;3.58;1.20;;;;;;;13.02;100.00;99114.13;5051671;28;20124;-66
2023/10/21 09:39:16;;;;;;;5.30;1.55;;;;;;;13.03;100.00;99110.19;5053101;28;20029;-66
2023/10/21 09:41:43;;;;;;;6.70;1.40;;;;;;;13.01;100.00;99103.41;5053123;28;20036;-66
2023/10/21 09:44:10;;;;;;;6.15;1.38;;;;;;;13.10;100.00;99124.22;5053344;28;20487;-66
2023/10/21 09:46:38;;;;;;;5.47;1.60;;;;;;;13.08;100.00;99128.53;5053217;28;20067;-65
2023/10/21 09:49:05;;;;;;;6.63;1.40;;;;;;;12.99;100.00;99128.75;5053123;28;20128;-66
2023/10/21 09:51:34;;;;;;;2.85;1.45;;;;;;;13.02;100.00;99144.69;5052988;28;20187;-66
2023/10/21 09:54:07;;;;;;;8.43;1.55;;;;;;;13.10;100.00;99135.31;5052954;28;20029;-66
2023/10/21 09:56:34;;;;;;;2.95;1.20;;;;;;;13.19;100.00;99148.19;5051326;28;20123;-65
2023/10/21 09:59:02;;;;;;;7.47;1.52;;;;;;;13.26;100.00;99151.13;5052202;28;20049;-65
2023/10/21 10:01:28;;;;;;;7.30;1.65;;;;;;;13.31;100.00;99150.81;5052714;28;20037;-66
2023/10/21 10:03:55;;;;;;;11.85;1.90;;;;;;;13.38;100.00;99147.38;5052614;28;20182;-67
2023/10/21 10:06:21;;;;;;;4.63;1.40;;;;;;;13.40;100.00;99156.97;5052815;28;20032;-66
2023/10/21 10:08:47;;;;;;;7.55;1.77;;;;;;;13.50;100.00;99163.94;5052860;28;20043;-66
2023/10/21 10:11:16;;;;;;;4.85;1.30;;;;;;;13.50;100.00;99165.88;5052909;28;20083;-65
2023/10/21 10:13:46;;;;;;;6.82;1.40;;;;;;;13.51;100.00;99161.94;5052434;28;20027;-65
2023/10/21 10:16:22;;;;;;;8.02;1.60;;;;;;;13.62;100.00;99167.69;5052565;28;20033;-65
2023/10/21 10:18:50;;;;;;;9.45;1.80;;;;;;;13.73;100.00;99180.63;5052649;28;20031;-66
2023/10/21 10:21:16;;;;;;;5.13;1.30;;;;;;;13.71;100.00;99168.25;5052589;28;20376;-65
2023/10/21 10:23:49;;;;;;;6.93;1.27;;;;;;;13.69;100.00;99187.31;5052964;28;20033;-66
2023/10/21 10:26:26;;;;;;;9.47;1.53;;;;;;;13.66;100.00;99188.03;5053339;28;20599;-66
2023/10/21 10:28:51;;;;;;;10.25;1.88;;;;;;;13.61;100.00;99186.34;5052896;28;20036;-66
2023/10/21 10:31:16;;;;;;;7.35;1.42;;;;;;;13.63;100.00;99184.00;5052422;28;20017;-66
2023/10/21 10:33:50;;;;;;;9.18;1.60;;;;;;;13.63;100.00;99180.41;5052423;28;20075;-66
2023/10/21 10:36:25;;;;;;;;;;;;;;;13.68;100.00;99192.03;5053968;28;20032;-66
2023/10/21 10:38:54;;;;;;;8.75;1.63;;;;;;;13.66;100.00;99191.59;5052428;28;19931;-66
2023/10/21 10:41:21;;;;;;;6.95;1.75;;;;;;;13.71;100.00;99196.06;5052938;28;20805;-66
2023/10/21 10:43:55;;;;;;;8.70;1.88;;;;;;;13.74;100.00;99189.75;5052813;28;20091;-66
2023/10/21 10:46:22;;;;;;;7.70;1.63;;;;;;;13.75;100.00;99185.81;5052849;28;20021;-66
2023/10/21 10:48:51;;;;;;;9.88;1.88;;;;;;;13.82;100.00;99191.50;5052769;28;20477;-66
2023/10/21 10:51:19;;;;;;;9.60;1.52;;;;;;;13.87;100.00;99204.28;5052233;28;20068;-66
2023/10/21 10:53:54;;;;;;;8.73;1.60;;;;;;;13.91;100.00;99202.41;5052057;28;20035;-65
2023/10/21 10:56:20;;;;;;;6.63;1.48;;;;;;;14.01;100.00;99206.53;5052074;28;20118;-66
2023/10/21 10:58:46;;;;;;;10.50;1.83;;;;;;;14.04;100.00;99195.47;5051747;28;20049;-66
2023/10/21 11:01:31;;;;;;;10.23;1.98;;;;;;;14.11;100.00;99197.56;5051856;28;20097;-66
2023/10/21 11:04:00;;;;;;;7.90;1.55;;;;;;;14.13;100.00;99198.00;5051466;28;20072;-66
2023/10/21 11:06:31;;;;;;;10.07;1.90;;;;;;;14.17;100.00;99206.41;5051634;28;20041;-66
2023/10/21 11:08:58;;;;;;;8.50;1.73;;;;;;;14.20;100.00;99211.25;5051682;28;20100;-65
2023/10/21 11:11:24;;;;;;;8.65;1.73;;;;;;;14.16;100.00;99210.38;5051552;28;20021;-67
2023/10/21 11:13:49;;;;;;;13.27;1.80;;;;;;;14.18;100.00;99211.59;5051443;28;20043;-65
2023/10/21 11:16:15;;;;;;;8.35;1.50;;;;;;;14.20;100.00;99214.03;5051611;28;20116;-66
2023/10/21 11:18:41;;;;;;;9.55;1.95;;;;;;;14.20;100.00;99217.59;5051581;28;20112;-66